sensor_id;sensor_type;location;lat;lon;timestamp;pressure;altitude;pressure_sealevel;temperature;humidity
21504;BME280;10913;51.992;9.228;2023-03-11T00:02:05;98804.88;;;2.01;100.00
21504;BME280;10913;51.992;9.228;2023-03-11T00:04:31;98815.28;;;2.00;100.00
21504;BME280;10913;51.992;9.228;2023-03-11T00:06:56;98824.88;;;2.04;100.00
21504;BME280;10913;51.992;9.228;2023-03-11T00:09:22;98831.78;;;2.02;100.00
21504;BME280;10913;51.992;9.228;2023-03-11T00:11:47;98830.94;;;2.03;100.00
21504;BME280;10913;51.992;9.228;2023-03-11T00:14:12;98849.19;;;2.06;100.00
21504;BME280;10913;51.992;9.228;2023-03-11T00:16:38;98855.25;;;2.06;100.00
21504;BME280;10913;51.992;9.228;2023-03-11T00:19:03;98861.31;;;1.95;100.00
21504;BME280;10913;51.992;9.228;2023-03-11T00:21:28;98865.59;;;1.88;100.00
21504;BME280;10913;51.992;9.228;2023-03-11T00:23:53;98872.53;;;1.88;100.00
21504;BME280;10913;51.992;9.228;2023-03-11T00:26:19;98881.22;;;1.87;100.00
21504;BME280;10913;51.992;9.228;2023-03-11T00:28:44;98881.19;;;1.85;100.00
21504;BME280;10913;51.992;9.228;2023-03-11T00:31:11;98893.34;;;1.85;100.00
21504;BME280;10913;51.992;9.228;2023-03-11T00:33:37;98890.72;;;1.79;100.00
21504;BME280;10913;51.992;9.228;2023-03-11T00:36:03;98892.44;;;1.73;100.00
21504;BME280;10913;51.992;9.228;2023-03-11T00:38:31;98902.84;;;1.72;100.00
21504;BME280;10913;51.992;9.228;2023-03-11T00:40:56;98905.38;;;1.66;100.00
21504;BME280;10913;51.992;9.228;2023-03-11T00:43:22;98910.59;;;1.66;100.00
21504;BME280;10913;51.992;9.228;2023-03-11T00:45:47;98922.75;;;1.67;100.00
21504;BME280;10913;51.992;9.228;2023-03-11T00:48:13;98930.56;;;1.68;100.00
21504;BME280;10913;51.992;9.228;2023-03-11T00:50:39;98925.38;;;1.70;100.00
21504;BME280;10913;51.992;9.228;2023-03-11T00:53:05;98929.72;;;1.71;100.00
21504;BME280;10913;51.992;9.228;2023-03-11T00:55:32;98934.94;;;1.71;100.00
21504;BME280;10913;51.992;9.228;2023-03-11T00:58:00;98927.97;;;1.68;100.00
21504;BME280;10913;51.992;9.228;2023-03-11T01:00:27;98943.63;;;1.73;100.00
21504;BME280;10913;51.992;9.228;2023-03-11T01:02:54;98954.91;;;1.73;100.00
21504;BME280;10913;51.992;9.228;2023-03-11T01:05:22;98961.81;;;1.71;100.00
21504;BME280;10913;51.992;9.228;2023-03-11T01:07:48;98964.41;;;1.67;100.00
21504;BME280;10913;51.992;9.228;2023-03-11T01:10:14;98964.41;;;1.70;100.00
21504;BME280;10913;51.992;9.228;2023-03-11T01:12:40;98960.97;;;1.74;100.00
21504;BME280;10913;51.992;9.228;2023-03-11T01:15:07;98973.13;;;1.75;100.00
21504;BME280;10913;51.992;9.228;2023-03-11T01:17:33;98978.34;;;1.75;100.00
21504;BME280;10913;51.992;9.228;2023-03-11T01:19:58;98986.13;;;1.73;100.00
21504;BME280;10913;51.992;9.228;2023-03-11T01:22:23;98986.97;;;1.71;100.00
21504;BME280;10913;51.992;9.228;2023-03-11T01:24:49;98993.88;;;1.66;100.00
21504;BME280;10913;51.992;9.228;2023-03-11T01:27:14;98999.13;;;1.69;100.00
21504;BME280;10913;51.992;9.228;2023-03-11T01:29:39;99004.28;;;1.64;100.00
21504;BME280;10913;51.992;9.228;2023-03-11T01:32:05;99011.22;;;1.64;100.00
21504;BME280;10913;51.992;9.228;2023-03-11T01:34:31;99003.41;;;1.59;100.00
21504;BME280;10913;51.992;9.228;2023-03-11T01:37:00;98995.56;;;1.58;100.00
21504;BME280;10913;51.992;9.228;2023-03-11T01:39:25;99019.00;;;1.59;100.00
21504;BME280;10913;51.992;9.228;2023-03-11T01:41:51;99015.50;;;1.57;100.00
21504;BME280;10913;51.992;9.228;2023-03-11T01:44:17;99027.66;;;1.57;100.00
21504;BME280;10913;51.992;9.228;2023-03-11T01:49:18;99032.88;;;1.61;100.00
21504;BME280;10913;51.992;9.228;2023-03-11T01:51:47;99032.88;;;1.61;100.00
21504;BME280;10913;51.992;9.228;2023-03-11T01:54:22;99031.16;;;1.63;100.00
21504;BME280;10913;51.992;9.228;2023-03-11T01:56:48;99032.03;;;1.64;100.00
21504;BME280;10913;51.992;9.228;2023-03-11T01:59:17;99038.13;;;1.67;100.00
21504;BME280;10913;51.992;9.228;2023-03-11T02:02:07;99035.50;;;1.64;100.00
21504;BME280;10913;51.992;9.228;2023-03-11T02:04:35;99042.47;;;1.67;100.00
21504;BME280;10913;51.992;9.228;2023-03-11T02:07:02;99049.41;;;1.65;100.00
21504;BME280;10913;51.992;9.228;2023-03-11T02:09:28;99040.72;;;1.66;100.00
21504;BME280;10913;51.992;9.228;2023-03-11T02:11:54;99047.63;;;1.62;100.00
21504;BME280;10913;51.992;9.228;2023-03-11T02:14:21;99052.84;;;1.59;100.00
21504;BME280;10913;51.992;9.228;2023-03-11T02:16:47;99066.72;;;1.58;100.00
21504;BME280;10913;51.992;9.228;2023-03-11T02:19:26;99071.06;;;1.59;100.00
21504;BME280;10913;51.992;9.228;2023-03-11T02:21:56;99072.78;;;1.60;100.00
21504;BME280;10913;51.992;9.228;2023-03-11T02:24:42;99086.69;;;1.64;100.00
21504;BME280;10913;51.992;9.228;2023-03-11T02:27:11;99071.03;;;1.58;100.00
21504;BME280;10913;51.992;9.228;2023-03-11T02:29:38;99081.47;;;1.59;100.00
21504;BME280;10913;51.992;9.228;2023-03-11T02:32:07;99087.50;;;1.55;100.00
21504;BME280;10913;51.992;9.228;2023-03-11T02:34:34;99093.59;;;1.57;100.00
21504;BME280;10913;51.992;9.228;2023-03-11T02:37:04;99093.56;;;1.54;100.00
21504;BME280;10913;51.992;9.228;2023-03-11T02:44:44;99094.34;;;1.49;100.00
21504;BME280;10913;51.992;9.228;2023-03-11T02:47:11;99097.78;;;1.46;100.00
21504;BME280;10913;51.992;9.228;2023-03-11T02:49:37;99098.66;;;1.45;100.00
21504;BME280;10913;51.992;9.228;2023-03-11T02:52:03;99109.09;;;1.48;100.00
21504;BME280;10913;51.992;9.228;2023-03-11T02:54:29;99098.72;;;1.51;100.00
21504;BME280;10913;51.992;9.228;2023-03-11T02:56:54;99105.72;;;1.55;100.00
21504;BME280;10913;51.992;9.228;2023-03-11T02:59:19;99108.31;;;1.57;100.00
21504;BME280;10913;51.992;9.228;2023-03-11T03:01:45;99114.41;;;1.57;100.00
21504;BME280;10913;51.992;9.228;2023-03-11T03:04:10;99118.75;;;1.57;100.00
21504;BME280;10913;51.992;9.228;2023-03-11T03:06:35;99117.81;;;1.53;100.00
21504;BME280;10913;51.992;9.228;2023-03-11T03:09:01;99117.81;;;1.53;100.00
21504;BME280;10913;51.992;9.228;2023-03-11T03:11:26;99119.56;;;1.54;100.00
21504;BME280;10913;51.992;9.228;2023-03-11T03:13:52;99123.03;;;1.53;100.00
21504;BME280;10913;51.992;9.228;2023-03-11T03:16:17;99123.91;;;1.54;100.00
21504;BME280;10913;51.992;9.228;2023-03-11T03:18:42;99133.44;;;1.53;100.00
21504;BME280;10913;51.992;9.228;2023-03-11T03:21:08;99135.16;;;1.51;100.00
21504;BME280;10913;51.992;9.228;2023-03-11T03:23:33;99129.03;;;1.48;100.00
21504;BME280;10913;51.992;9.228;2023-03-11T03:26:02;99124.69;;;1.47;100.00
21504;BME280;10913;51.992;9.228;2023-03-11T03:28:27;99139.41;;;1.45;100.00
21504;BME280;10913;51.992;9.228;2023-03-11T03:30:53;99148.03;;;1.42;100.00
21504;BME280;10913;51.992;9.228;2023-03-11T03:33:18;99150.66;;;1.44;100.00
21504;BME280;10913;51.992;9.228;2023-03-11T03:35:44;99155.91;;;1.45;100.00
21504;BME280;10913;51.992;9.228;2023-03-11T03:38:10;99160.19;;;1.43;100.00
21504;BME280;10913;51.992;9.228;2023-03-11T03:40:35;99159.34;;;1.44;100.00
21504;BME280;10913;51.992;9.228;2023-03-11T03:43:01;99161.09;;;1.45;100.00
21504;BME280;10913;51.992;9.228;2023-03-11T03:45:27;99176.72;;;1.47;100.00
21504;BME280;10913;51.992;9.228;2023-03-11T03:47:52;99185.41;;;1.47;100.00
21504;BME280;10913;51.992;9.228;2023-03-11T03:50:17;99187.13;;;1.45;100.00
21504;BME280;10913;51.992;9.228;2023-03-11T03:52:43;99192.31;;;1.44;100.00
21504;BME280;10913;51.992;9.228;2023-03-11T03:55:09;99199.28;;;1.46;100.00
21504;BME280;10913;51.992;9.228;2023-03-11T03:57:34;99204.47;;;1.46;100.00
21504;BME280;10913;51.992;9.228;2023-03-11T03:59:59;99196.66;;;1.46;100.00
21504;BME280;10913;51.992;9.228;2023-03-11T04:02:24;99206.25;;;1.50;100.00
21504;BME280;10913;51.992;9.228;2023-03-11T04:04:50;99205.38;;;1.50;100.00
21504;BME280;10913;51.992;9.228;2023-03-11T04:07:15;99207.09;;;1.48;100.00
21504;BME280;10913;51.992;9.228;2023-03-11T04:09:41;99209.69;;;1.48;100.00
21504;BME280;10913;51.992;9.228;2023-03-11T04:12:12;99216.63;;;1.47;100.00
21504;BME280;10913;51.992;9.228;2023-03-11T04:14:37;99222.72;;;1.49;100.00
21504;BME280;10913;51.992;9.228;2023-03-11T04:17:03;99227.09;;;1.50;100.00
21504;BME280;10913;51.992;9.228;2023-03-11T04:19:28;99227.03;;;1.47;100.00
21504;BME280;10913;51.992;9.228;2023-03-11T04:21:53;99220.09;;;1.46;100.00
21504;BME280;10913;51.992;9.228;2023-03-11T04:24:19;99218.34;;;1.45;100.00
21504;BME280;10913;51.992;9.228;2023-03-11T04:26:44;99220.94;;;1.45;100.00
21504;BME280;10913;51.992;9.228;2023-03-11T04:29:09;99224.38;;;1.43;100.00
21504;BME280;10913;51.992;9.228;2023-03-11T04:31:35;99233.00;;;1.40;100.00
21504;BME280;10913;51.992;9.228;2023-03-11T04:34:00;99240.81;;;1.40;100.00
21504;BME280;10913;51.992;9.228;2023-03-11T04:36:26;99241.69;;;1.41;100.00
21504;BME280;10913;51.992;9.228;2023-03-11T04:38:51;99241.69;;;1.41;100.00
21504;BME280;10913;51.992;9.228;2023-03-11T04:41:17;99245.19;;;1.40;100.00
21504;BME280;10913;51.992;9.228;2023-03-11T04:43:42;99252.97;;;1.38;100.00
21504;BME280;10913;51.992;9.228;2023-03-11T04:46:08;99251.22;;;1.37;100.00
21504;BME280;10913;51.992;9.228;2023-03-11T04:48:33;99265.94;;;1.36;100.00
21504;BME280;10913;51.992;9.228;2023-03-11T04:50:58;99262.47;;;1.36;100.00
21504;BME280;10913;51.992;9.228;2023-03-11T04:53:24;99267.66;;;1.34;100.00
21504;BME280;10913;51.992;9.228;2023-03-11T04:55:49;99271.06;;;1.30;100.00
21504;BME280;10913;51.992;9.228;2023-03-11T04:58:16;99270.19;;;1.30;100.00
21504;BME280;10913;51.992;9.228;2023-03-11T05:00:41;99278.88;;;1.30;100.00
21504;BME280;10913;51.992;9.228;2023-03-11T05:03:07;99284.03;;;1.29;100.00
21504;BME280;10913;51.992;9.228;2023-03-11T05:05:32;99278.84;;;1.29;100.00
21504;BME280;10913;51.992;9.228;2023-03-11T05:07:57;99292.66;;;1.25;100.00
21504;BME280;10913;51.992;9.228;2023-03-11T05:10:23;99293.50;;;1.24;100.00
21504;BME280;10913;51.992;9.228;2023-03-11T05:12:49;99301.31;;;1.24;100.00
21504;BME280;10913;51.992;9.228;2023-03-11T05:15:14;99305.59;;;1.20;100.00
21504;BME280;10913;51.992;9.228;2023-03-11T05:17:40;99305.56;;;1.17;100.00
21504;BME280;10913;51.992;9.228;2023-03-11T05:20:06;99302.06;;;1.15;100.00
21504;BME280;10913;51.992;9.228;2023-03-11T05:22:33;99312.44;;;1.14;100.00
21504;BME280;10913;51.992;9.228;2023-03-11T05:24:58;99315.00;;;1.11;100.00
21504;BME280;10913;51.992;9.228;2023-03-11T05:27:24;99327.16;;;1.12;100.00
21504;BME280;10913;51.992;9.228;2023-03-11T05:29:49;99328.78;;;1.07;100.00
21504;BME280;10913;51.992;9.228;2023-03-11T05:32:14;99321.03;;;1.10;100.00
21504;BME280;10913;51.992;9.228;2023-03-11T05:34:40;99330.53;;;1.08;100.00
21504;BME280;10913;51.992;9.228;2023-03-11T05:37:06;99336.59;;;1.07;100.00
21504;BME280;10913;51.992;9.228;2023-03-11T05:39:32;99332.25;;;1.06;100.00
21504;BME280;10913;51.992;9.228;2023-03-11T05:41:58;99328.78;;;1.07;100.00
21504;BME280;10913;51.992;9.228;2023-03-11T05:44:23;99333.97;;;1.05;100.00
21504;BME280;10913;51.992;9.228;2023-03-11T05:46:48;99327.97;;;1.09;100.00
21504;BME280;10913;51.992;9.228;2023-03-11T05:49:14;99331.44;;;1.10;100.00
21504;BME280;10913;51.992;9.228;2023-03-11T05:51:39;99334.00;;;1.07;100.00
21504;BME280;10913;51.992;9.228;2023-03-11T05:54:05;99341.78;;;1.07;100.00
21504;BME280;10913;51.992;9.228;2023-03-11T05:56:35;99346.97;;;1.05;100.00
21504;BME280;10913;51.992;9.228;2023-03-11T05:59:01;99342.56;;;1.01;100.00
21504;BME280;10913;51.992;9.228;2023-03-11T06:01:26;99347.78;;;1.02;100.00
21504;BME280;10913;51.992;9.228;2023-03-11T06:03:52;99351.22;;;0.98;100.00
21504;BME280;10913;51.992;9.228;2023-03-11T06:06:17;99354.69;;;1.00;100.00
21504;BME280;10913;51.992;9.228;2023-03-11T06:08:43;99356.47;;;1.03;100.00
21504;BME280;10913;51.992;9.228;2023-03-11T06:11:14;99365.13;;;1.02;100.00
21504;BME280;10913;51.992;9.228;2023-03-11T06:13:39;99368.66;;;1.06;100.00
21504;BME280;10913;51.992;9.228;2023-03-11T06:16:05;99373.03;;;1.08;100.00
21504;BME280;10913;51.992;9.228;2023-03-11T06:18:31;99384.31;;;1.09;100.00
21504;BME280;10913;51.992;9.228;2023-03-11T06:20:57;99380.81;;;1.07;100.00
21504;BME280;10913;51.992;9.228;2023-03-11T06:23:24;99394.72;;;1.09;100.00
21504;BME280;10913;51.992;9.228;2023-03-11T06:26:03;99397.31;;;1.09;100.00
21504;BME280;10913;51.992;9.228;2023-03-11T06:28:29;99387.81;;;1.11;100.00
21504;BME280;10913;51.992;9.228;2023-03-11T06:30:56;99392.16;;;1.12;100.00
21504;BME280;10913;51.992;9.228;2023-03-11T06:33:23;99394.81;;;1.15;100.00
21504;BME280;10913;51.992;9.228;2023-03-11T06:35:58;99400.88;;;1.14;100.00
21504;BME280;10913;51.992;9.228;2023-03-11T06:38:24;99404.31;;;1.13;100.00
21504;BME280;10913;51.992;9.228;2023-03-11T06:40:49;99413.88;;;1.14;100.00
21504;BME280;10913;51.992;9.228;2023-03-11T06:43:15;99415.66;;;1.16;100.00
21504;BME280;10913;51.992;9.228;2023-03-11T06:45:40;99412.19;;;1.16;100.00
21504;BME280;10913;51.992;9.228;2023-03-11T06:48:05;99420.03;;;1.19;100.00
21504;BME280;10913;51.992;9.228;2023-03-11T06:50:31;99420.88;;;1.18;100.00
21504;BME280;10913;51.992;9.228;2023-03-11T06:52:56;99424.38;;;1.20;100.00
21504;BME280;10913;51.992;9.228;2023-03-11T06:55:22;99429.56;;;1.18;100.00
21504;BME280;10913;51.992;9.228;2023-03-11T06:57:47;99438.25;;;1.19;100.00
21504;BME280;10913;51.992;9.228;2023-03-11T07:00:13;99445.97;;;1.14;100.00
21504;BME280;10913;51.992;9.228;2023-03-11T07:02:39;99445.09;;;1.14;100.00
21504;BME280;10913;51.992;9.228;2023-03-11T07:05:05;99452.03;;;1.15;100.00
21504;BME280;10913;51.992;9.228;2023-03-11T07:07:31;99451.19;;;1.16;100.00
21504;BME280;10913;51.992;9.228;2023-03-11T07:09:56;99454.69;;;1.18;100.00
21504;BME280;10913;51.992;9.228;2023-03-11T07:12:22;99468.59;;;1.20;100.00
21504;BME280;10913;51.992;9.228;2023-03-11T07:14:55;99467.81;;;1.25;100.00
21504;BME280;10913;51.992;9.228;2023-03-11T07:17:21;99478.25;;;1.27;100.00
21504;BME280;10913;51.992;9.228;2023-03-11T07:19:46;99475.66;;;1.28;100.00
21504;BME280;10913;51.992;9.228;2023-03-11T07:22:12;99481.75;;;1.29;100.00
21504;BME280;10913;51.992;9.228;2023-03-11T07:24:37;99486.94;;;1.29;100.00
21504;BME280;10913;51.992;9.228;2023-03-11T07:27:02;99485.19;;;1.28;100.00
21504;BME280;10913;51.992;9.228;2023-03-11T07:29:28;99494.75;;;1.29;100.00
21504;BME280;10913;51.992;9.228;2023-03-11T07:31:53;99496.53;;;1.31;100.00
21504;BME280;10913;51.992;9.228;2023-03-11T07:34:19;99497.47;;;1.35;100.00
21504;BME280;10913;51.992;9.228;2023-03-11T07:36:44;99495.78;;;1.37;100.00
21504;BME280;10913;51.992;9.228;2023-03-11T07:39:15;99503.59;;;1.40;100.00
21504;BME280;10913;51.992;9.228;2023-03-11T07:41:42;99508.84;;;1.42;100.00
21504;BME280;10913;51.992;9.228;2023-03-11T07:44:10;99516.69;;;1.43;100.00
21504;BME280;10913;51.992;9.228;2023-03-11T07:46:36;99514.06;;;1.43;99.58
21504;BME280;10913;51.992;9.228;2023-03-11T07:49:01;99521.88;;;1.43;99.25
21504;BME280;10913;51.992;9.228;2023-03-11T07:51:29;99526.25;;;1.44;99.60
21504;BME280;10913;51.992;9.228;2023-03-11T07:53:57;99534.03;;;1.44;99.85
21504;BME280;10913;51.992;9.228;2023-03-11T07:56:24;99536.66;;;1.44;99.48
21504;BME280;10913;51.992;9.228;2023-03-11T07:58:51;99541.84;;;1.44;98.72
21504;BME280;10913;51.992;9.228;2023-03-11T08:01:22;99552.28;;;1.46;98.69
21504;BME280;10913;51.992;9.228;2023-03-11T08:03:50;99554.97;;;1.50;98.73
21504;BME280;10913;51.992;9.228;2023-03-11T08:06:23;99555.09;;;1.56;98.59
21504;BME280;10913;51.992;9.228;2023-03-11T08:08:49;99559.53;;;1.63;97.96
21504;BME280;10913;51.992;9.228;2023-03-11T08:11:16;99570.97;;;1.71;97.24
21504;BME280;10913;51.992;9.228;2023-03-11T08:13:42;99573.06;;;1.94;96.90
21504;BME280;10913;51.992;9.228;2023-03-11T08:16:10;99577.09;;;2.29;95.68
21504;BME280;10913;51.992;9.228;2023-03-11T08:18:36;99574.78;;;2.51;93.83
21504;BME280;10913;51.992;9.228;2023-03-11T08:21:06;99581.91;;;2.65;92.77
21504;BME280;10913;51.992;9.228;2023-03-11T08:23:32;99586.31;;;2.68;92.26
21504;BME280;10913;51.992;9.228;2023-03-11T08:25:57;99588.03;;;2.67;92.30
21504;BME280;10913;51.992;9.228;2023-03-11T08:28:22;99595.69;;;2.54;92.83
21504;BME280;10913;51.992;9.228;2023-03-11T08:30:48;99597.25;;;2.42;92.74
21504;BME280;10913;51.992;9.228;2023-03-11T08:33:13;99603.28;;;2.38;92.98
21504;BME280;10913;51.992;9.228;2023-03-11T08:35:38;99599.63;;;2.27;93.61
21504;BME280;10913;51.992;9.228;2023-03-11T08:38:04;99610.81;;;2.19;93.07
21504;BME280;10913;51.992;9.228;2023-03-11T08:40:29;99614.25;;;2.16;93.97
21504;BME280;10913;51.992;9.228;2023-03-11T08:42:55;99622.97;;;2.20;94.08
21504;BME280;10913;51.992;9.228;2023-03-11T08:45:21;99616.13;;;2.28;94.02
21504;BME280;10913;51.992;9.228;2023-03-11T08:47:46;99622.31;;;2.33;93.91
21504;BME280;10913;51.992;9.228;2023-03-11T08:50:15;99624.44;;;2.58;93.46
21504;BME280;10913;51.992;9.228;2023-03-11T08:52:43;99636.44;;;3.12;90.63
21504;BME280;10913;51.992;9.228;2023-03-11T08:55:12;99633.34;;;4.37;87.78
21504;BME280;10913;51.992;9.228;2023-03-11T08:57:38;99624.34;;;5.70;82.43
21504;BME280;10913;51.992;9.228;2023-03-11T09:00:05;99619.06;;;6.84;78.55
21504;BME280;10913;51.992;9.228;2023-03-11T09:02:31;99618.84;;;8.64;73.96
21504;BME280;10913;51.992;9.228;2023-03-11T09:04:57;99601.28;;;11.00;68.00
21504;BME280;10913;51.992;9.228;2023-03-11T09:07:22;99599.72;;;13.15;62.55
21504;BME280;10913;51.992;9.228;2023-03-11T09:09:47;99602.84;;;14.42;57.85
21504;BME280;10913;51.992;9.228;2023-03-11T09:12:13;99608.16;;;14.69;55.57
21504;BME280;10913;51.992;9.228;2023-03-11T09:14:42;99606.41;;;15.18;54.15
21504;BME280;10913;51.992;9.228;2023-03-11T09:17:09;99610.69;;;15.45;53.66
21504;BME280;10913;51.992;9.228;2023-03-11T09:19:36;99607.59;;;16.02;52.24
21504;BME280;10913;51.992;9.228;2023-03-11T09:22:02;99610.81;;;16.54;51.66
21504;BME280;10913;51.992;9.228;2023-03-11T09:24:28;99616.78;;;16.59;50.78
21504;BME280;10913;51.992;9.228;2023-03-11T09:26:54;99624.78;;;16.59;50.53
21504;BME280;10913;51.992;9.228;2023-03-11T09:29:19;99623.97;;;16.37;50.82
21504;BME280;10913;51.992;9.228;2023-03-11T09:31:45;99623.34;;;16.08;50.98
21504;BME280;10913;51.992;9.228;2023-03-11T09:34:11;99624.91;;;15.69;51.45
21504;BME280;10913;51.992;9.228;2023-03-11T09:36:39;99621.25;;;15.71;51.08
21504;BME280;10913;51.992;9.228;2023-03-11T09:39:05;99640.44;;;15.58;51.72
21504;BME280;10913;51.992;9.228;2023-03-11T09:41:52;99644.59;;;15.40;51.90
21504;BME280;10913;51.992;9.228;2023-03-11T09:44:35;99635.94;;;15.10;52.01
21504;BME280;10913;51.992;9.228;2023-03-11T09:50:14;99641.25;;;14.85;52.13
21504;BME280;10913;51.992;9.228;2023-03-11T09:53:15;99645.56;;;14.63;52.39
21504;BME280;10913;51.992;9.228;2023-03-11T09:55:48;99646.72;;;14.56;53.03
21504;BME280;10913;51.992;9.228;2023-03-11T10:01:27;99654.91;;;13.92;53.62
21504;BME280;10913;51.992;9.228;2023-03-11T10:04:42;99645.03;;;13.97;54.24
21504;BME280;10913;51.992;9.228;2023-03-11T10:06:44;99645.47;;;14.11;54.52
21504;BME280;10913;51.992;9.228;2023-03-11T10:20:21;99649.31;;;12.77;56.31
21504;BME280;10913;51.992;9.228;2023-03-11T10:28:16;99651.69;;;12.19;57.60
21504;BME280;10913;51.992;9.228;2023-03-11T10:30:51;99652.75;;;11.70;58.21
21504;BME280;10913;51.992;9.228;2023-03-11T10:33:23;99662.88;;;11.50;59.07
21504;BME280;10913;51.992;9.228;2023-03-11T10:35:55;99664.91;;;11.37;59.04
21504;BME280;10913;51.992;9.228;2023-03-11T10:38:32;99669.75;;;11.15;59.54
21504;BME280;10913;51.992;9.228;2023-03-11T10:41:03;99675.59;;;10.85;60.57
21504;BME280;10913;51.992;9.228;2023-03-11T10:43:44;99674.75;;;10.81;61.02
21504;BME280;10913;51.992;9.228;2023-03-11T10:46:19;99670.31;;;10.83;61.12
21504;BME280;10913;51.992;9.228;2023-03-11T10:48:45;99681.69;;;10.88;61.13
21504;BME280;10913;51.992;9.228;2023-03-11T10:51:19;99678.09;;;10.92;61.44
21504;BME280;10913;51.992;9.228;2023-03-11T10:53:55;99691.91;;;11.08;61.05
21504;BME280;10913;51.992;9.228;2023-03-11T10:58:59;99683.47;;;10.88;60.68
21504;BME280;10913;51.992;9.228;2023-03-11T11:01:25;99686.09;;;10.88;61.21
21504;BME280;10913;51.992;9.228;2023-03-11T11:03:55;99692.97;;;10.98;61.86
21504;BME280;10913;51.992;9.228;2023-03-11T11:09:17;99702.94;;;10.82;61.60
21504;BME280;10913;51.992;9.228;2023-03-11T11:12:15;99694.09;;;10.85;61.06
21504;BME280;10913;51.992;9.228;2023-03-11T11:14:50;99694.09;;;10.83;61.16
21504;BME280;10913;51.992;9.228;2023-03-11T11:17:29;99695.69;;;10.95;61.31
21504;BME280;10913;51.992;9.228;2023-03-11T11:19:56;99692.59;;;10.70;61.45
21504;BME280;10913;51.992;9.228;2023-03-11T11:22:23;99702.88;;;10.33;61.57
21504;BME280;10913;51.992;9.228;2023-03-11T11:24:50;99695.25;;;10.10;62.06
21504;BME280;10913;51.992;9.228;2023-03-11T11:27:22;99692.47;;;10.22;62.28
21504;BME280;10913;51.992;9.228;2023-03-11T11:30:12;99695.91;;;10.29;62.95
21504;BME280;10913;51.992;9.228;2023-03-11T11:32:38;99705.44;;;10.39;62.24
21504;BME280;10913;51.992;9.228;2023-03-11T11:35:11;99701.81;;;10.45;62.74
21504;BME280;10913;51.992;9.228;2023-03-11T11:37:41;99704.25;;;10.57;62.77
21504;BME280;10913;51.992;9.228;2023-03-11T11:42:53;99702.25;;;10.14;63.00
21504;BME280;10913;51.992;9.228;2023-03-11T11:45:34;99706.50;;;10.26;63.29
21504;BME280;10913;51.992;9.228;2023-03-11T11:48:19;99700.94;;;9.80;62.96
21504;BME280;10913;51.992;9.228;2023-03-11T11:50:59;99706.28;;;9.78;63.80
21504;BME280;10913;51.992;9.228;2023-03-11T11:53:39;99711.19;;;9.37;64.44
21504;BME280;10913;51.992;9.228;2023-03-11T11:56:06;99709.06;;;9.63;64.05
21504;BME280;10913;51.992;9.228;2023-03-11T11:58:32;99709.91;;;9.68;63.85
21504;BME280;10913;51.992;9.228;2023-03-11T12:01:14;99718.72;;;9.67;63.48
21504;BME280;10913;51.992;9.228;2023-03-11T12:09:10;99704.22;;;9.29;64.55
21504;BME280;10913;51.992;9.228;2023-03-11T12:16:49;99706.91;;;9.23;63.07
21504;BME280;10913;51.992;9.228;2023-03-11T12:25:18;99694.63;;;9.94;64.25
21504;BME280;10913;51.992;9.228;2023-03-11T12:30:23;99706.94;;;9.92;61.51
21504;BME280;10913;51.992;9.228;2023-03-11T12:33:04;99701.75;;;9.86;62.50
21504;BME280;10913;51.992;9.228;2023-03-11T12:35:34;99696.50;;;9.83;62.37
21504;BME280;10913;51.992;9.228;2023-03-11T12:50:52;99700.94;;;9.81;62.46
21504;BME280;10913;51.992;9.228;2023-03-11T12:53:19;99706.22;;;9.80;62.18
21504;BME280;10913;51.992;9.228;2023-03-11T12:59:33;99719.97;;;9.36;62.42
21504;BME280;10913;51.992;9.228;2023-03-11T13:07:40;99717.94;;;8.78;63.99
21504;BME280;10913;51.992;9.228;2023-03-11T13:10:14;99721.63;;;8.54;63.27
21504;BME280;10913;51.992;9.228;2023-03-11T13:12:49;99718.28;;;8.24;63.50
21504;BME280;10913;51.992;9.228;2023-03-11T13:15:35;99722.69;;;8.21;64.34
21504;BME280;10913;51.992;9.228;2023-03-11T13:18:26;99726.25;;;8.17;65.06
21504;BME280;10913;51.992;9.228;2023-03-11T13:23:22;99728.78;;;8.37;63.88
21504;BME280;10913;51.992;9.228;2023-03-11T13:36:55;99730.66;;;8.09;65.08
21504;BME280;10913;51.992;9.228;2023-03-11T13:42:33;99732.28;;;8.36;65.15
21504;BME280;10913;51.992;9.228;2023-03-11T13:45:01;99729.59;;;8.43;65.09
21504;BME280;10913;51.992;9.228;2023-03-11T13:47:30;99732.19;;;8.48;64.87
21504;BME280;10913;51.992;9.228;2023-03-11T13:50:11;99740.13;;;8.43;64.20
21504;BME280;10913;51.992;9.228;2023-03-11T13:52:46;99736.69;;;8.32;64.89
21504;BME280;10913;51.992;9.228;2023-03-11T13:57:48;99750.91;;;7.98;65.46
21504;BME280;10913;51.992;9.228;2023-03-11T14:00:15;99761.47;;;7.84;66.23
21504;BME280;10913;51.992;9.228;2023-03-11T14:02:46;99758.03;;;7.77;66.75
21504;BME280;10913;51.992;9.228;2023-03-11T14:05:18;99765.03;;;7.72;66.14
21504;BME280;10913;51.992;9.228;2023-03-11T14:07:45;99763.28;;;7.74;67.15
21504;BME280;10913;51.992;9.228;2023-03-11T14:12:35;99759.81;;;7.63;66.20
21504;BME280;10913;51.992;9.228;2023-03-11T14:15:03;99762.44;;;7.60;66.41
21504;BME280;10913;51.992;9.228;2023-03-11T14:17:30;99773.00;;;7.48;66.91
21504;BME280;10913;51.992;9.228;2023-03-11T14:20:06;99773.88;;;7.44;67.34
21504;BME280;10913;51.992;9.228;2023-03-11T14:22:33;99772.13;;;7.43;67.43
21504;BME280;10913;51.992;9.228;2023-03-11T14:25:01;99765.13;;;7.51;67.11
21504;BME280;10913;51.992;9.228;2023-03-11T14:27:28;99780.00;;;7.52;66.58
21504;BME280;10913;51.992;9.228;2023-03-11T14:29:53;99779.13;;;7.47;67.22
21504;BME280;10913;51.992;9.228;2023-03-11T14:32:26;99780.88;;;7.48;67.38
21504;BME280;10913;51.992;9.228;2023-03-11T14:34:52;99777.38;;;7.41;67.59
21504;BME280;10913;51.992;9.228;2023-03-11T14:37:35;99784.44;;;7.35;68.13
21504;BME280;10913;51.992;9.228;2023-03-11T14:40:01;99783.53;;;7.43;66.75
21504;BME280;10913;51.992;9.228;2023-03-11T14:42:32;99786.16;;;7.46;68.10
21504;BME280;10913;51.992;9.228;2023-03-11T14:45:06;99793.16;;;7.49;67.63
21504;BME280;10913;51.992;9.228;2023-03-11T14:47:38;99790.56;;;7.37;68.07
21504;BME280;10913;51.992;9.228;2023-03-11T14:50:16;99794.06;;;7.39;67.95